Terminal Aerodrome Forecast
Issued by NWS Charleston, WV

Current Version | Previous Version | Text Only | Print | Product List | Glossary Off
Versions: 1 2 3 4 5 6 7 8 9 10 11 12 13 14 15 16 17 18 19 20 21 22

000
FTUS41 KRLX 310901 AAA
TAFBKW
TAF AMD
KBKW 310901Z 3109/0106 00000KT P6SM SKC
     FM311000 00000KT 6SM BR SKC
     FM311400 32005KT P6SM SKC
     FM311800 32007KT P6SM SCT250=

USA.gov is the U.S. government's official web portal to all federal, state and local government web resources and services.